Ship Status Report: callsign AMOUK29

sailwx.info

Track history (hours):
 
Tides and Currents Weather Stations Pressure Air Temp Water Temp Dewpoint Dewpoint Depression Visibility Wind Speed Wind Dir Waves Ship Positions

Callsign AMOUK29 (name unknown)

Last reported at 2014-Jul-30 05:00 UTC. Time now 2014-Jul-30 07:03 UTC.
Position N 54°12' W 005°06'.

Barometer 1014.4 mb

Date/timePositionNaut miles runAvg speedWind from/ knotsBaromVisibWave heightAir tempDewpointWater temp
2014-Jul-30 05:00N 54°12' W 005°06'4 3.5 1014.4
2014-Jul-30 04:00N 54°12' W 005°00'4 3.5 1015.0
2014-Jul-30 03:00N 54°12' W 004°54'4 3.5 1015.6
2014-Jul-30 02:00N 54°12' W 004°48'11 5.3 1016.1
2014-Jul-30 00:00N 54°12' W 005°06'4 3.5 1016.6
2014-Jul-29 23:00N 54°12' W 005°12'4 3.5 1017.3
2014-Jul-29 22:00N 54°12' W 005°18'7 7.0 1017.7
2014-Jul-29 21:00N 54°12' W 005°30'7 6.9 1017.9
2014-Jul-29 20:00N 54°18' W 005°24'4 3.5 1017.6
2014-Jul-29 19:00N 54°18' W 005°18'4 3.5 1017.5
2014-Jul-29 18:00N 54°18' W 005°12'7 7.0 1017.8
2014-Jul-29 17:00N 54°18' W 005°00'4 3.5 1017.6
2014-Jul-29 16:00N 54°18' W 004°54'0 0.0 1017.7
2014-Jul-29 15:00N 54°18' W 004°54'0 0.0 1017.7
2014-Jul-29 14:00N 54°18' W 004°54'7 6.9 1017.5
2014-Jul-29 13:00N 54°24' W 005°00'3 3.5 1017.5
2014-Jul-29 12:00N 54°24' W 005°06'7 7.0 1017.6
2014-Jul-29 11:00N 54°24' W 005°18'0 0.0 1017.8
2014-Jul-29 10:00N 54°24' W 005°18'3 3.5 1017.6
2014-Jul-29 09:00N 54°24' W 005°12'3 3.5 1017.4
2014-Jul-29 08:00N 54°24' W 005°06'3 3.5 1017.6
2014-Jul-29 07:00N 54°24' W 005°00'3 3.5 1017.7
2014-Jul-29 06:00N 54°24' W 004°54'7 6.9 1017.4
2014-Jul-29 05:00N 54°30' W 005°00'3 3.5 1017.7
2014-Jul-29 04:00N 54°30' W 005°06'3 3.5 1017.7
2014-Jul-29 03:00N 54°30' W 005°12'3 3.5 1017.9
2014-Jul-29 02:00N 54°30' W 005°18'0 0.0 1018.2
2014-Jul-29 01:00N 54°30' W 005°18'1212.5 1018.7
2014-Jul-29 00:00N 54°42' W 005°24'7 6.9 1018.8
2014-Jul-28 23:00N 54°42' W 005°36'1212.0 1019.0
2014-Jul-28 22:00N 54°36' W 005°54'0 0.0 1019.3
2014-Jul-28 21:00N 54°36' W 005°54'0 0.0 1019.6
2014-Jul-28 20:00N 54°36' W 005°54'0 0.0 1019.4
2014-Jul-28 19:00N 54°36' W 005°54'0 0.0 1019.4
2014-Jul-28 18:00N 54°36' W 005°54'0 0.0 1019.1
2014-Jul-28 17:00N 54°36' W 005°54'0 0.0 1019.3
2014-Jul-28 15:00N 54°36' W 005°54'0 0.0 1019.2
2014-Jul-28 14:00N 54°36' W 005°54'0 0.0 1019.3
2014-Jul-28 13:00N 54°36' W 005°54'0 0.0 1019.1
2014-Jul-28 12:00N 54°36' W 005°54'0 0.0 1019.2
2014-Jul-28 11:00N 54°36' W 005°54'0 0.0 1019.0
2014-Jul-28 10:00N 54°36' W 005°54'0 0.0 1018.9
2014-Jul-28 09:00N 54°36' W 005°54'0 0.0 1019.0
2014-Jul-28 08:00N 54°36' W 005°54'0 0.0 1018.4
2014-Jul-28 07:00N 54°36' W 005°54'0 0.0 1018.5
2014-Jul-28 06:00N 54°36' W 005°54'0 0.0 1018.1
2014-Jul-28 05:00N 54°36' W 005°54'0 0.0 1017.6
2014-Jul-28 04:00N 54°36' W 005°54'0 0.0 1017.1
2014-Jul-28 03:00N 54°36' W 005°54'0 0.0 1016.7
2014-Jul-28 02:00N 54°36' W 005°54'0 0.0 1016.4
2014-Jul-28 01:00N 54°36' W 005°54'0 0.0 1016.2
2014-Jul-27 23:00N 54°36' W 005°54'0 0.0 1015.9
2014-Jul-27 22:00N 54°36' W 005°54'0 0.0 1016.0
2014-Jul-27 21:00N 54°36' W 005°54'0 0.0 1015.6
2014-Jul-27 20:00N 54°36' W 005°54'0 0.0 1015.7
2014-Jul-27 18:00N 54°36' W 005°54'0 0.0 1015.3
2014-Jul-27 15:00N 54°36' W 005°54'0 0.0 1016.4
2014-Jul-27 14:00N 54°36' W 005°54'0 0.0 1016.9
2014-Jul-27 13:00N 54°36' W 005°54'0 0.0 1017.1
2014-Jul-27 10:00N 54°36' W 005°54'0 0.0 1017.1
2014-Jul-27 09:00N 54°36' W 005°54'0 0.0 1017.7
2014-Jul-27 08:00N 54°36' W 005°54'0 0.0 1017.7
2014-Jul-27 07:00N 54°36' W 005°54'0 0.0 1017.9
2014-Jul-27 06:00N 54°36' W 005°54'0 0.0 1017.9
2014-Jul-27 03:00N 54°36' W 005°54'0 0.0 1017.9
2014-Jul-27 02:00N 54°36' W 005°54'0 0.0 1017.9
2014-Jul-26 23:00N 54°36' W 005°54'0 0.0 1018.6
2014-Jul-26 20:00N 54°36' W 005°54'0 0.0 1018.2
2014-Jul-26 19:00N 54°36' W 005°54'0 0.0 1017.8
2014-Jul-26 18:00N 54°36' W 005°54'0 0.0 1017.7
2014-Jul-26 17:00N 54°36' W 005°54'0 0.0 1017.5
2014-Jul-26 16:00N 54°36' W 005°54'0 0.0 1017.4
2014-Jul-26 15:00N 54°36' W 005°54'0 0.0 1017.5
2014-Jul-26 14:00N 54°36' W 005°54'0 0.0 1017.2
2014-Jul-26 13:00N 54°36' W 005°54'0 0.0 1017.2
2014-Jul-26 12:00N 54°36' W 005°54'0 0.0 1017.2
2014-Jul-26 11:00N 54°36' W 005°54'0 0.0 1017.3
2014-Jul-26 10:00N 54°36' W 005°54'0 0.0 1017.3
2014-Jul-26 09:00N 54°36' W 005°54'0 0.0 1017.1
2014-Jul-26 08:00N 54°36' W 005°54'0 0.0 1017.2
2014-Jul-26 06:00N 54°36' W 005°54'0 0.0 1017.0
2014-Jul-26 04:00N 54°36' W 005°54'0 0.0 1017.4
2014-Jul-26 03:00N 54°36' W 005°54'0 0.0 1017.6
2014-Jul-26 02:00N 54°36' W 005°54'0 0.0 1017.9
2014-Jul-26 01:00N 54°36' W 005°54'0 0.0 1018.2
2014-Jul-26 00:00N 54°36' W 005°54'0 0.0 1018.2
2014-Jul-25 23:00N 54°36' W 005°54'0 0.0 1018.2
2014-Jul-25 22:00N 54°36' W 005°54'0 0.0 1018.3
2014-Jul-25 21:00N 54°36' W 005°54'0 0.0 1018.4
2014-Jul-25 19:00N 54°36' W 005°54'0 0.0 1018.5
2014-Jul-25 18:00N 54°36' W 005°54'0 0.0 1018.6
2014-Jul-25 17:00N 54°36' W 005°54'0 0.0 1018.7
2014-Jul-25 16:00N 54°36' W 005°54'0 0.0 1019.1
2014-Jul-25 15:00N 54°36' W 005°54'0 0.0 1019.6
2014-Jul-25 14:00N 54°36' W 005°54'0 0.0 1019.8
2014-Jul-25 13:00N 54°36' W 005°54'0 0.0 1020.0
2014-Jul-25 12:00N 54°36' W 005°54'0 0.0 1020.1
2014-Jul-25 11:00N 54°36' W 005°54'0 0.0 1020.4
2014-Jul-25 10:00N 54°36' W 005°54'0 0.0 1020.6
2014-Jul-25 09:00N 54°36' W 005°54'0 0.0 1020.8
2014-Jul-25 08:00N 54°36' W 005°54'0 0.0 1020.8
2014-Jul-25 07:00N 54°36' W 005°54'0 0.0 1020.9
2014-Jul-25 06:00N 54°36' W 005°54'0 0.0 1020.9
2014-Jul-25 05:00N 54°36' W 005°54'0 0.0 1020.9
2014-Jul-25 04:00N 54°36' W 005°54'0 0.0 1020.7
2014-Jul-25 03:00N 54°36' W 005°54'0 0.0 1020.6
2014-Jul-25 02:00N 54°36' W 005°54'0 0.0 1020.6
2014-Jul-25 01:00N 54°36' W 005°54'0 0.0 1020.7
2014-Jul-25 00:00N 54°36' W 005°54'0 0.0 1020.5
2014-Jul-24 23:00N 54°36' W 005°54'0 0.0 1020.4
2014-Jul-24 22:00N 54°36' W 005°54'0 0.0 1020.4
2014-Jul-24 21:00N 54°36' W 005°54'0 0.0 1020.3
2014-Jul-24 19:00N 54°36' W 005°54'0 0.0 1020.4
2014-Jul-24 18:00N 54°36' W 005°54'0 0.0 1020.4
2014-Jul-24 17:00N 54°36' W 005°54'0 0.0 1020.4
2014-Jul-24 16:00N 54°36' W 005°54'0 0.0 1020.6
2014-Jul-24 15:00N 54°36' W 005°54'0 0.0 1021.0
2014-Jul-24 14:00N 54°36' W 005°54'0 0.0 1021.1
2014-Jul-24 13:00N 54°36' W 005°54'0 0.0 1021.3
2014-Jul-24 12:00N 54°36' W 005°54'0 0.0 1021.4
2014-Jul-24 11:00N 54°36' W 005°54'0 0.0 1021.5
2014-Jul-24 10:00N 54°36' W 005°54'0 0.0 1021.2
2014-Jul-24 09:00N 54°36' W 005°54'0 0.0 1021.2
2014-Jul-24 08:00N 54°36' W 005°54'0 0.0 1021.3
2014-Jul-24 07:00N 54°36' W 005°54'0 0.0 1021.1
2014-Jul-24 06:00N 54°36' W 005°54'0 0.0 1020.9
2014-Jul-24 05:00N 54°36' W 005°54'0 0.0 1020.9
2014-Jul-24 04:00N 54°36' W 005°54'0 0.0 1020.9
2014-Jul-24 03:00N 54°36' W 005°54'0 0.0 1021.0
2014-Jul-24 02:00N 54°36' W 005°54'0 0.0 1021.1
2014-Jul-24 01:00N 54°36' W 005°54'0 0.0 1021.2
2014-Jul-24 00:00N 54°36' W 005°54'0 0.0 1021.2
2014-Jul-23 23:00N 54°36' W 005°54'0 0.0 1021.2
2014-Jul-23 22:00N 54°36' W 005°54'0 0.0 1021.2
2014-Jul-23 21:00N 54°36' W 005°54'0 0.0 1021.1
2014-Jul-23 18:00N 54°36' W 005°54'0 0.0 1021.2
2014-Jul-23 17:00N 54°36' W 005°54'0 0.0 1021.5
2014-Jul-23 15:00N 54°36' W 005°54'0 0.0 1022.1
2014-Jul-23 14:00N 54°36' W 005°54'0 0.0 1022.5
2014-Jul-23 13:00N 54°36' W 005°54'0 0.0 1022.7
2014-Jul-23 12:00N 54°36' W 005°54'0 0.0 1023.0
2014-Jul-23 11:00N 54°36' W 005°54'0 0.0 1023.1
2014-Jul-23 10:00N 54°36' W 005°54'0 0.0 1023.2
2014-Jul-23 09:00N 54°36' W 005°54'0 0.0 1023.6
2014-Jul-23 08:00N 54°36' W 005°54'0 0.0 1023.6
2014-Jul-23 07:00N 54°36' W 005°54'0 0.0 1023.8
2014-Jul-23 06:00N 54°36' W 005°54'0 0.0 1023.8
2014-Jul-23 05:00N 54°36' W 005°54'0 0.0 1024.0
2014-Jul-23 04:00N 54°36' W 005°54'0 0.0 1024.3
2014-Jul-23 03:00N 54°36' W 005°54'0 0.0 1024.3
2014-Jul-23 02:00N 54°36' W 005°54'0 0.0 1024.5
2014-Jul-23 01:00N 54°36' W 005°54'0 0.0 1024.5
2014-Jul-23 00:00N 54°36' W 005°54'0 0.0 1024.6
2014-Jul-22 23:00N 54°36' W 005°54'0 0.0 1024.7
2014-Jul-22 22:00N 54°36' W 005°54'0 0.0 1024.7
2014-Jul-22 21:00N 54°36' W 005°54'0 0.0 1024.4
2014-Jul-22 20:00N 54°36' W 005°54'1212.0 1024.0
2014-Jul-22 19:00N 54°42' W 005°36'12 6.0 1024.2
2014-Jul-22 17:00N 54°36' W 005°18'1212.5 1024.8
2014-Jul-22 16:00N 54°24' W 005°12'6 6.0 1025.0
2014-Jul-22 15:00N 54°18' W 005°12'7 6.9 1025.3
2014-Jul-22 14:00N 54°12' W 005°18'6 6.0 1025.3
2014-Jul-22 13:00N 54°06' W 005°18'1413.9 1025.3
2014-Jul-22 12:00N 53°54' W 005°30'7 7.0 1025.1
2014-Jul-22 11:00N 53°48' W 005°36'0 0.0 1024.9
2014-Jul-22 10:00N 53°48' W 005°36'0 0.0 1024.6
2014-Jul-22 09:00N 53°48' W 005°36'0 0.0 1024.3
2014-Jul-22 08:00N 53°48' W 005°36'7 7.1 1023.8
2014-Jul-22 07:00N 53°48' W 005°48'4 3.5 1023.0
2014-Jul-22 06:00N 53°48' W 005°54'9 9.3 1022.8
2014-Jul-22 05:00N 53°42' W 006°06'7 7.0 1022.5
2014-Jul-22 04:00N 53°48' W 006°12'7 7.1 1022.2
2014-Jul-22 03:00N 53°48' W 006°00'7 7.1 1022.4
2014-Jul-22 02:00N 53°48' W 005°48'1110.6 1022.4
2014-Jul-22 01:00N 53°48' W 005°30'7 7.1 1022.2
2014-Jul-22 00:00N 53°48' W 005°18'1212.2 1022.4
2014-Jul-21 23:00N 53°42' W 005°00'7 7.1 1022.5
2014-Jul-21 22:00N 53°42' W 004°48'1212.2 1022.5
2014-Jul-21 21:00N 53°36' W 004°30'1110.7 1022.6
2014-Jul-21 20:00N 53°36' W 004°12'1110.7 1022.0
2014-Jul-21 19:00N 53°36' W 003°54'7 7.1 1021.5
2014-Jul-21 18:00N 53°36' W 003°42'1212.3 1021.3
2014-Jul-21 17:00N 53°30' W 003°24'0 0.0 1021.0
2014-Jul-21 16:00N 53°30' W 003°24'0 0.0 1021.2
2014-Jul-21 15:00N 53°30' W 003°24'15 7.7 1021.3
2014-Jul-21 13:00N 53°36' W 003°48'4 3.6 1021.3
2014-Jul-21 12:00N 53°36' W 003°54'1212.2 1021.0
2014-Jul-21 11:00N 53°42' W 004°12'7 7.0 1020.7
2014-Jul-21 10:00N 53°48' W 004°18'1110.6 1020.3
2014-Jul-21 09:00N 53°48' W 004°36'7 7.1 1019.9
2014-Jul-21 08:00N 53°48' W 004°48'7 7.1 1019.6
2014-Jul-21 07:00N 53°48' W 005°00'7 7.1 1019.0
2014-Jul-21 06:00N 53°48' W 005°12'1312.5 1018.4
2014-Jul-21 05:00N 53°36' W 005°18'9 9.3 1018.1
2014-Jul-21 04:00N 53°30' W 005°30'6 6.0 1017.8
2014-Jul-21 03:00N 53°24' W 005°30'1312.5 1017.6
2014-Jul-21 02:00N 53°12' W 005°24'7 7.0 1017.3
2014-Jul-21 01:00N 53°06' W 005°18'1212.0 1017.7
2014-Jul-21 00:00N 52°54' W 005°18'6 6.0 1017.8
2014-Jul-20 23:00N 52°48' W 005°18'4 3.6 1017.7
2014-Jul-20 22:00N 52°48' W 005°24'1312.5 1017.4
2014-Jul-20 21:00N 52°36' W 005°30'6 6.0 1016.9
2014-Jul-20 20:00N 52°30' W 005°30'1312.5 1016.2
2014-Jul-20 19:00N 52°18' W 005°36'7 7.0 1016.0
2014-Jul-20 18:00N 52°12' W 005°42'1212.0 1015.8
2014-Jul-20 17:00N 52°00' W 005°42'10 9.5 1015.6
2014-Jul-20 16:00N 51°54' W 005°54'1312.6 1015.4
2014-Jul-20 15:00N 51°42' W 006°00'4 3.7 1014.8
2014-Jul-20 14:00N 51°42' W 006°06'1312.6 1014.6
2014-Jul-20 13:00N 51°30' W 006°12'1312.6 1014.2
2014-Jul-20 12:00N 51°18' W 006°18'4 3.8 1013.6
2014-Jul-20 11:00N 51°18' W 006°24'10 9.6 1013.6
2014-Jul-20 10:00N 51°12' W 006°36'1414.2 1013.1
2014-Jul-20 09:00N 51°00' W 006°48'8 7.6 1012.6
2014-Jul-20 08:00N 51°00' W 007°00'10 9.7 1012.5
2014-Jul-20 07:00N 50°54' W 007°12'16 8.1 1012.1
2014-Jul-20 05:00N 50°48' W 007°36'   1011.7
Track history (hours):
 
Tides and Currents Weather Stations Pressure Air Temp Water Temp Dewpoint Dewpoint Depression Visibility Wind Speed Wind Dir Waves Ship Positions

Callsign AMOUK29 (name unknown)

Last reported at 2014-Jul-30 05:00 UTC. Time now 2014-Jul-30 07:03 UTC.
Position N 54°12' W 005°06'.

Barometer 1014.4 mb

Date/timePositionNaut miles runAvg speedWind from/ knotsBaromVisibWave heightAir tempDewpointWater temp
2014-Jul-30 05:00N 54°12' W 005°06'4 3.5 1014.4
2014-Jul-30 04:00N 54°12' W 005°00'4 3.5 1015.0
2014-Jul-30 03:00N 54°12' W 004°54'4 3.5 1015.6
2014-Jul-30 02:00N 54°12' W 004°48'11 5.3 1016.1
2014-Jul-30 00:00N 54°12' W 005°06'4 3.5 1016.6
2014-Jul-29 23:00N 54°12' W 005°12'4 3.5 1017.3
2014-Jul-29 22:00N 54°12' W 005°18'7 7.0 1017.7
2014-Jul-29 21:00N 54°12' W 005°30'7 6.9 1017.9
2014-Jul-29 20:00N 54°18' W 005°24'4 3.5 1017.6
2014-Jul-29 19:00N 54°18' W 005°18'4 3.5 1017.5
2014-Jul-29 18:00N 54°18' W 005°12'7 7.0 1017.8
2014-Jul-29 17:00N 54°18' W 005°00'4 3.5 1017.6
2014-Jul-29 16:00N 54°18' W 004°54'0 0.0 1017.7
2014-Jul-29 15:00N 54°18' W 004°54'0 0.0 1017.7
2014-Jul-29 14:00N 54°18' W 004°54'7 6.9 1017.5
2014-Jul-29 13:00N 54°24' W 005°00'3 3.5 1017.5
2014-Jul-29 12:00N 54°24' W 005°06'7 7.0 1017.6
2014-Jul-29 11:00N 54°24' W 005°18'0 0.0 1017.8
2014-Jul-29 10:00N 54°24' W 005°18'3 3.5 1017.6
2014-Jul-29 09:00N 54°24' W 005°12'3 3.5 1017.4
2014-Jul-29 08:00N 54°24' W 005°06'3 3.5 1017.6
2014-Jul-29 07:00N 54°24' W 005°00'3 3.5 1017.7
2014-Jul-29 06:00N 54°24' W 004°54'7 6.9 1017.4
2014-Jul-29 05:00N 54°30' W 005°00'3 3.5 1017.7
2014-Jul-29 04:00N 54°30' W 005°06'3 3.5 1017.7
2014-Jul-29 03:00N 54°30' W 005°12'3 3.5 1017.9
2014-Jul-29 02:00N 54°30' W 005°18'0 0.0 1018.2
2014-Jul-29 01:00N 54°30' W 005°18'1212.5 1018.7
2014-Jul-29 00:00N 54°42' W 005°24'7 6.9 1018.8
2014-Jul-28 23:00N 54°42' W 005°36'1212.0 1019.0
2014-Jul-28 22:00N 54°36' W 005°54'0 0.0 1019.3
2014-Jul-28 21:00N 54°36' W 005°54'0 0.0 1019.6
2014-Jul-28 20:00N 54°36' W 005°54'0 0.0 1019.4
2014-Jul-28 19:00N 54°36' W 005°54'0 0.0 1019.4
2014-Jul-28 18:00N 54°36' W 005°54'0 0.0 1019.1
2014-Jul-28 17:00N 54°36' W 005°54'0 0.0 1019.3
2014-Jul-28 15:00N 54°36' W 005°54'0 0.0 1019.2
2014-Jul-28 14:00N 54°36' W 005°54'0 0.0 1019.3
2014-Jul-28 13:00N 54°36' W 005°54'0 0.0 1019.1
2014-Jul-28 12:00N 54°36' W 005°54'0 0.0 1019.2
2014-Jul-28 11:00N 54°36' W 005°54'0 0.0 1019.0
2014-Jul-28 10:00N 54°36' W 005°54'0 0.0 1018.9
2014-Jul-28 09:00N 54°36' W 005°54'0 0.0 1019.0
2014-Jul-28 08:00N 54°36' W 005°54'0 0.0 1018.4
2014-Jul-28 07:00N 54°36' W 005°54'0 0.0 1018.5
2014-Jul-28 06:00N 54°36' W 005°54'0 0.0 1018.1
2014-Jul-28 05:00N 54°36' W 005°54'0 0.0 1017.6
2014-Jul-28 04:00N 54°36' W 005°54'0 0.0 1017.1
2014-Jul-28 03:00N 54°36' W 005°54'0 0.0 1016.7
2014-Jul-28 02:00N 54°36' W 005°54'0 0.0 1016.4
2014-Jul-28 01:00N 54°36' W 005°54'0 0.0 1016.2
2014-Jul-27 23:00N 54°36' W 005°54'0 0.0 1015.9
2014-Jul-27 22:00N 54°36' W 005°54'0 0.0 1016.0
2014-Jul-27 21:00N 54°36' W 005°54'0 0.0 1015.6
2014-Jul-27 20:00N 54°36' W 005°54'0 0.0 1015.7
2014-Jul-27 18:00N 54°36' W 005°54'0 0.0 1015.3
2014-Jul-27 15:00N 54°36' W 005°54'0 0.0 1016.4
2014-Jul-27 14:00N 54°36' W 005°54'0 0.0 1016.9
2014-Jul-27 13:00N 54°36' W 005°54'0 0.0 1017.1
2014-Jul-27 10:00N 54°36' W 005°54'0 0.0 1017.1
2014-Jul-27 09:00N 54°36' W 005°54'0 0.0 1017.7
2014-Jul-27 08:00N 54°36' W 005°54'0 0.0 1017.7
2014-Jul-27 07:00N 54°36' W 005°54'0 0.0 1017.9
2014-Jul-27 06:00N 54°36' W 005°54'0 0.0 1017.9
2014-Jul-27 03:00N 54°36' W 005°54'0 0.0 1017.9
2014-Jul-27 02:00N 54°36' W 005°54'0 0.0 1017.9
2014-Jul-26 23:00N 54°36' W 005°54'0 0.0 1018.6
2014-Jul-26 20:00N 54°36' W 005°54'0 0.0 1018.2
2014-Jul-26 19:00N 54°36' W 005°54'0 0.0 1017.8
2014-Jul-26 18:00N 54°36' W 005°54'0 0.0 1017.7
2014-Jul-26 17:00N 54°36' W 005°54'0 0.0 1017.5
2014-Jul-26 16:00N 54°36' W 005°54'0 0.0 1017.4
2014-Jul-26 15:00N 54°36' W 005°54'0 0.0 1017.5
2014-Jul-26 14:00N 54°36' W 005°54'0 0.0 1017.2
2014-Jul-26 13:00N 54°36' W 005°54'0 0.0 1017.2
2014-Jul-26 12:00N 54°36' W 005°54'0 0.0 1017.2
2014-Jul-26 11:00N 54°36' W 005°54'0 0.0 1017.3
2014-Jul-26 10:00N 54°36' W 005°54'0 0.0 1017.3
2014-Jul-26 09:00N 54°36' W 005°54'0 0.0 1017.1
2014-Jul-26 08:00N 54°36' W 005°54'0 0.0 1017.2
2014-Jul-26 06:00N 54°36' W 005°54'0 0.0 1017.0
2014-Jul-26 04:00N 54°36' W 005°54'0 0.0 1017.4
2014-Jul-26 03:00N 54°36' W 005°54'0 0.0 1017.6
2014-Jul-26 02:00N 54°36' W 005°54'0 0.0 1017.9
2014-Jul-26 01:00N 54°36' W 005°54'0 0.0 1018.2
2014-Jul-26 00:00N 54°36' W 005°54'0 0.0 1018.2
2014-Jul-25 23:00N 54°36' W 005°54'0 0.0 1018.2
2014-Jul-25 22:00N 54°36' W 005°54'0 0.0 1018.3
2014-Jul-25 21:00N 54°36' W 005°54'0 0.0 1018.4
2014-Jul-25 19:00N 54°36' W 005°54'0 0.0 1018.5
2014-Jul-25 18:00N 54°36' W 005°54'0 0.0 1018.6
2014-Jul-25 17:00N 54°36' W 005°54'0 0.0 1018.7
2014-Jul-25 16:00N 54°36' W 005°54'0 0.0 1019.1
2014-Jul-25 15:00N 54°36' W 005°54'0 0.0 1019.6
2014-Jul-25 14:00N 54°36' W 005°54'0 0.0 1019.8
2014-Jul-25 13:00N 54°36' W 005°54'0 0.0 1020.0
2014-Jul-25 12:00N 54°36' W 005°54'0 0.0 1020.1
2014-Jul-25 11:00N 54°36' W 005°54'0 0.0 1020.4
2014-Jul-25 10:00N 54°36' W 005°54'0 0.0 1020.6
2014-Jul-25 09:00N 54°36' W 005°54'0 0.0 1020.8
2014-Jul-25 08:00N 54°36' W 005°54'0 0.0 1020.8
2014-Jul-25 07:00N 54°36' W 005°54'0 0.0 1020.9
2014-Jul-25 06:00N 54°36' W 005°54'0 0.0 1020.9
2014-Jul-25 05:00N 54°36' W 005°54'0 0.0 1020.9
2014-Jul-25 04:00N 54°36' W 005°54'0 0.0 1020.7
2014-Jul-25 03:00N 54°36' W 005°54'0 0.0 1020.6
2014-Jul-25 02:00N 54°36' W 005°54'0 0.0 1020.6
2014-Jul-25 01:00N 54°36' W 005°54'0 0.0 1020.7
2014-Jul-25 00:00N 54°36' W 005°54'0 0.0 1020.5
2014-Jul-24 23:00N 54°36' W 005°54'0 0.0 1020.4
2014-Jul-24 22:00N 54°36' W 005°54'0 0.0 1020.4
2014-Jul-24 21:00N 54°36' W 005°54'0 0.0 1020.3
2014-Jul-24 19:00N 54°36' W 005°54'0 0.0 1020.4
2014-Jul-24 18:00N 54°36' W 005°54'0 0.0 1020.4
2014-Jul-24 17:00N 54°36' W 005°54'0 0.0 1020.4
2014-Jul-24 16:00N 54°36' W 005°54'0 0.0 1020.6
2014-Jul-24 15:00N 54°36' W 005°54'0 0.0 1021.0
2014-Jul-24 14:00N 54°36' W 005°54'0 0.0 1021.1
2014-Jul-24 13:00N 54°36' W 005°54'0 0.0 1021.3
2014-Jul-24 12:00N 54°36' W 005°54'0 0.0 1021.4
2014-Jul-24 11:00N 54°36' W 005°54'0 0.0 1021.5
2014-Jul-24 10:00N 54°36' W 005°54'0 0.0 1021.2
2014-Jul-24 09:00N 54°36' W 005°54'0 0.0 1021.2
2014-Jul-24 08:00N 54°36' W 005°54'0 0.0 1021.3
2014-Jul-24 07:00N 54°36' W 005°54'0 0.0 1021.1
2014-Jul-24 06:00N 54°36' W 005°54'0 0.0 1020.9
2014-Jul-24 05:00N 54°36' W 005°54'0 0.0 1020.9
2014-Jul-24 04:00N 54°36' W 005°54'0 0.0 1020.9
2014-Jul-24 03:00N 54°36' W 005°54'0 0.0 1021.0
2014-Jul-24 02:00N 54°36' W 005°54'0 0.0 1021.1
2014-Jul-24 01:00N 54°36' W 005°54'0 0.0 1021.2
2014-Jul-24 00:00N 54°36' W 005°54'0 0.0 1021.2
2014-Jul-23 23:00N 54°36' W 005°54'0 0.0 1021.2
2014-Jul-23 22:00N 54°36' W 005°54'0 0.0 1021.2
2014-Jul-23 21:00N 54°36' W 005°54'0 0.0 1021.1
2014-Jul-23 18:00N 54°36' W 005°54'0 0.0 1021.2
2014-Jul-23 17:00N 54°36' W 005°54'0 0.0 1021.5
2014-Jul-23 15:00N 54°36' W 005°54'0 0.0 1022.1
2014-Jul-23 14:00N 54°36' W 005°54'0 0.0 1022.5
2014-Jul-23 13:00N 54°36' W 005°54'0 0.0 1022.7
2014-Jul-23 12:00N 54°36' W 005°54'0 0.0 1023.0
2014-Jul-23 11:00N 54°36' W 005°54'0 0.0 1023.1
2014-Jul-23 10:00N 54°36' W 005°54'0 0.0 1023.2
2014-Jul-23 09:00N 54°36' W 005°54'0 0.0 1023.6
2014-Jul-23 08:00N 54°36' W 005°54'0 0.0 1023.6
2014-Jul-23 07:00N 54°36' W 005°54'0 0.0 1023.8
2014-Jul-23 06:00N 54°36' W 005°54'0 0.0 1023.8
2014-Jul-23 05:00N 54°36' W 005°54'0 0.0 1024.0
2014-Jul-23 04:00N 54°36' W 005°54'0 0.0 1024.3
2014-Jul-23 03:00N 54°36' W 005°54'0 0.0 1024.3
2014-Jul-23 02:00N 54°36' W 005°54'0 0.0 1024.5
2014-Jul-23 01:00N 54°36' W 005°54'0 0.0 1024.5
2014-Jul-23 00:00N 54°36' W 005°54'0 0.0 1024.6
2014-Jul-22 23:00N 54°36' W 005°54'0 0.0 1024.7
2014-Jul-22 22:00N 54°36' W 005°54'0 0.0 1024.7
2014-Jul-22 21:00N 54°36' W 005°54'0 0.0 1024.4
2014-Jul-22 20:00N 54°36' W 005°54'1212.0 1024.0
2014-Jul-22 19:00N 54°42' W 005°36'12 6.0 1024.2
2014-Jul-22 17:00N 54°36' W 005°18'1212.5 1024.8
2014-Jul-22 16:00N 54°24' W 005°12'6 6.0 1025.0
2014-Jul-22 15:00N 54°18' W 005°12'7 6.9 1025.3
2014-Jul-22 14:00N 54°12' W 005°18'6 6.0 1025.3
2014-Jul-22 13:00N 54°06' W 005°18'1413.9 1025.3
2014-Jul-22 12:00N 53°54' W 005°30'7 7.0 1025.1
2014-Jul-22 11:00N 53°48' W 005°36'0 0.0 1024.9
2014-Jul-22 10:00N 53°48' W 005°36'0 0.0 1024.6
2014-Jul-22 09:00N 53°48' W 005°36'0 0.0 1024.3
2014-Jul-22 08:00N 53°48' W 005°36'7 7.1 1023.8
2014-Jul-22 07:00N 53°48' W 005°48'4 3.5 1023.0
2014-Jul-22 06:00N 53°48' W 005°54'9 9.3 1022.8
2014-Jul-22 05:00N 53°42' W 006°06'7 7.0 1022.5
2014-Jul-22 04:00N 53°48' W 006°12'7 7.1 1022.2
2014-Jul-22 03:00N 53°48' W 006°00'7 7.1 1022.4
2014-Jul-22 02:00N 53°48' W 005°48'1110.6 1022.4
2014-Jul-22 01:00N 53°48' W 005°30'7 7.1 1022.2
2014-Jul-22 00:00N 53°48' W 005°18'1212.2 1022.4
2014-Jul-21 23:00N 53°42' W 005°00'7 7.1 1022.5
2014-Jul-21 22:00N 53°42' W 004°48'1212.2 1022.5
2014-Jul-21 21:00N 53°36' W 004°30'1110.7 1022.6
2014-Jul-21 20:00N 53°36' W 004°12'1110.7 1022.0
2014-Jul-21 19:00N 53°36' W 003°54'7 7.1 1021.5
2014-Jul-21 18:00N 53°36' W 003°42'1212.3 1021.3
2014-Jul-21 17:00N 53°30' W 003°24'0 0.0 1021.0
2014-Jul-21 16:00N 53°30' W 003°24'0 0.0 1021.2
2014-Jul-21 15:00N 53°30' W 003°24'15 7.7 1021.3
2014-Jul-21 13:00N 53°36' W 003°48'4 3.6 1021.3
2014-Jul-21 12:00N 53°36' W 003°54'1212.2 1021.0
2014-Jul-21 11:00N 53°42' W 004°12'7 7.0 1020.7
2014-Jul-21 10:00N 53°48' W 004°18'1110.6 1020.3
2014-Jul-21 09:00N 53°48' W 004°36'7 7.1 1019.9
2014-Jul-21 08:00N 53°48' W 004°48'7 7.1 1019.6
2014-Jul-21 07:00N 53°48' W 005°00'7 7.1 1019.0
2014-Jul-21 06:00N 53°48' W 005°12'1312.5 1018.4
2014-Jul-21 05:00N 53°36' W 005°18'9 9.3 1018.1
2014-Jul-21 04:00N 53°30' W 005°30'6 6.0 1017.8
2014-Jul-21 03:00N 53°24' W 005°30'1312.5 1017.6
2014-Jul-21 02:00N 53°12' W 005°24'7 7.0 1017.3
2014-Jul-21 01:00N 53°06' W 005°18'1212.0 1017.7
2014-Jul-21 00:00N 52°54' W 005°18'6 6.0 1017.8
2014-Jul-20 23:00N 52°48' W 005°18'4 3.6 1017.7
2014-Jul-20 22:00N 52°48' W 005°24'1312.5 1017.4
2014-Jul-20 21:00N 52°36' W 005°30'6 6.0 1016.9
2014-Jul-20 20:00N 52°30' W 005°30'1312.5 1016.2
2014-Jul-20 19:00N 52°18' W 005°36'7 7.0 1016.0
2014-Jul-20 18:00N 52°12' W 005°42'1212.0 1015.8
2014-Jul-20 17:00N 52°00' W 005°42'10 9.5 1015.6
2014-Jul-20 16:00N 51°54' W 005°54'1312.6 1015.4
2014-Jul-20 15:00N 51°42' W 006°00'4 3.7 1014.8
2014-Jul-20 14:00N 51°42' W 006°06'1312.6 1014.6
2014-Jul-20 13:00N 51°30' W 006°12'1312.6 1014.2
2014-Jul-20 12:00N 51°18' W 006°18'4 3.8 1013.6
2014-Jul-20 11:00N 51°18' W 006°24'10 9.6 1013.6
2014-Jul-20 10:00N 51°12' W 006°36'1414.2 1013.1
2014-Jul-20 09:00N 51°00' W 006°48'8 7.6 1012.6
2014-Jul-20 08:00N 51°00' W 007°00'10 9.7 1012.5
2014-Jul-20 07:00N 50°54' W 007°12'16 8.1 1012.1
2014-Jul-20 05:00N 50°48' W 007°36'   1011.7

Dump ship's entire track history